Cobhill, Kentucky
Current Conditions -  °F | °C
As of 7:15 AM on Thursday 29 Jan 2015 (Local Time) from KI39 Reporting Station
Overcast Overcast  
Wind Chill: 32°   Ceiling: 10000
Heat Index: 41°   Visibility: 10mi
Dew Point: 19°   Wind: 17mph
Humidity: 42%   Direction: 190°S
Pressure: 30"   Gusts: 21mph
Location:  37.6427°N, 83.9998°W
Report Text: KI39 291215Z AUTO 19015G18KT 10SM SCT080 OVC100 05/M07 A3000 RMK AO2
Loading
Personal Weather Stations






























Interactive Weather Map New forecast layout! Learn more

10-Day Weather Forecast

Advertisements
Track Severe Weather on mobile